Time;durP1;ratioP1;P1;durP2;ratioP2;P2;SDS_P1;SDS_P2;PMS_P1;PMS_P2;Temp;Humidity;BMP_temperature;BMP_pressure;BME280_temperature;BME280_humidity;BME280_pressure;Samples;Min_cycle;Max_cycle;Signal;HPM_P1;HPM_P2
2020/12/16 00:01:05;;;;;;;0.30;0.30;;;;;;;7.26;100.00;100277.22;5035757;28;20478;-50
2020/12/16 00:03:32;;;;;;;0.30;0.20;;;;;;;7.18;100.00;100265.91;5036165;28;20513;-50
2020/12/16 00:05:59;;;;;;;0.30;0.20;;;;;;;7.21;100.00;100276.44;5036166;28;20452;-51
2020/12/16 00:08:25;;;;;;;0.30;0.20;;;;;;;7.23;100.00;100272.00;5030303;28;20542;-51
2020/12/16 00:10:52;;;;;;;0.30;0.20;;;;;;;7.28;100.00;100276.31;5035695;28;20881;-51
2020/12/16 00:13:18;;;;;;;0.57;0.50;;;;;;;7.28;100.00;100273.69;5035796;28;20462;-51
2020/12/16 00:15:48;;;;;;;0.30;0.20;;;;;;;7.30;100.00;100269.25;5036001;28;20483;-51
2020/12/16 00:18:14;;;;;;;0.30;0.20;;;;;;;7.37;100.00;100276.16;5009690;28;20447;-51
2020/12/16 00:20:40;;;;;;;5.63;3.97;;;;;;;7.39;100.00;100281.44;5035903;28;20475;-51
2020/12/16 00:23:06;;;;;;;0.30;0.20;;;;;;;7.41;100.00;100282.31;5035355;28;20863;-51
2020/12/16 00:25:32;;;;;;;0.30;0.20;;;;;;;7.40;100.00;100288.47;5035837;28;20517;-52
2020/12/16 00:27:59;;;;;;;0.30;0.27;;;;;;;7.40;100.00;100286.72;5035902;28;20487;-52
2020/12/16 00:30:25;;;;;;;0.30;0.20;;;;;;;7.37;100.00;100286.75;5035532;28;20932;-52
2020/12/16 00:32:51;;;;;;;0.30;0.20;;;;;;;7.30;100.00;100281.59;5035440;28;20447;-52
2020/12/16 00:35:17;;;;;;;0.30;0.20;;;;;;;7.33;100.00;100279.75;5035932;28;20451;-52
2020/12/16 00:37:43;;;;;;;0.30;0.20;;;;;;;7.30;100.00;100278.94;5029577;28;20449;-52
2020/12/16 00:40:11;;;;;;;0.30;0.20;;;;;;;7.36;100.00;100279.72;5029498;28;20873;-53
2020/12/16 00:42:38;;;;;;;0.30;0.20;;;;;;;7.42;100.00;100278.75;5029977;28;20976;-52
2020/12/16 00:45:06;;;;;;;0.30;0.20;;;;;;;7.38;100.00;100277.03;5029940;28;20498;-52
2020/12/16 00:47:34;;;;;;;0.30;0.20;;;;;;;7.31;100.00;100284.22;5035214;28;20545;-52
2020/12/16 00:50:00;;;;;;;0.30;0.20;;;;;;;7.28;100.00;100280.75;5034904;28;20478;-51
2020/12/16 00:52:28;;;;;;;0.30;0.20;;;;;;;7.28;100.00;100276.31;5034982;28;20482;-51
2020/12/16 00:54:55;;;;;;;0.30;0.20;;;;;;;7.36;100.00;100277.06;5034413;28;20926;-52
2020/12/16 00:57:22;;;;;;;0.30;0.20;;;;;;;7.33;100.00;100287.69;5035098;28;20498;-51
2020/12/16 00:59:48;;;;;;;0.30;0.20;;;;;;;7.33;100.00;100287.69;5034950;28;20546;-52
2020/12/16 01:02:15;;;;;;;0.30;0.20;;;;;;;7.46;100.00;100288.38;5034934;28;20454;-51
2020/12/16 01:04:41;;;;;;;0.67;0.67;;;;;;;7.43;100.00;100294.59;5034674;28;20481;-53
2020/12/16 01:07:08;;;;;;;0.30;0.10;;;;;;;7.41;100.00;100284.94;5034188;28;20491;-52
2020/12/16 01:09:34;;;;;;;0.30;0.20;;;;;;;7.48;100.00;100296.28;5030717;28;20472;-52
2020/12/16 01:12:01;;;;;;;3.63;3.33;;;;;;;7.75;100.00;100294.97;5034701;28;21015;-52
2020/12/16 01:14:27;;;;;;;2.30;1.33;;;;;;;7.83;100.00;100304.53;5034715;28;20459;-52
2020/12/16 01:16:54;;;;;;;0.30;0.20;;;;;;;7.78;100.00;100305.47;5034555;28;20814;-52
2020/12/16 01:19:20;;;;;;;1.60;1.60;;;;;;;7.79;100.00;100310.75;5034337;28;20479;-54
2020/12/16 01:21:46;;;;;;;0.30;0.20;;;;;;;7.68;100.00;100310.94;5034597;28;20456;-52
2020/12/16 01:24:12;;;;;;;0.30;0.20;;;;;;;7.71;100.00;100310.88;5034723;28;20451;-52
2020/12/16 01:26:42;;;;;;;0.30;0.20;;;;;;;7.53;100.00;100315.59;5034411;28;20968;-52
2020/12/16 01:29:08;;;;;;;0.30;0.20;;;;;;;7.38;100.00;100311.41;5034687;28;20475;-56
2020/12/16 01:31:37;;;;;;;0.43;0.43;;;;;;;7.42;100.00;100327.22;5034215;28;20558;-57
2020/12/16 01:34:03;;;;;;;0.30;0.20;;;;;;;7.46;100.00;100327.19;5034175;28;20999;-58
2020/12/16 01:36:29;;;;;;;0.30;0.20;;;;;;;7.38;100.00;100328.16;5034599;28;20440;-58
2020/12/16 01:38:56;;;;;;;0.30;0.20;;;;;;;7.32;100.00;100333.53;5022502;28;20452;-57
2020/12/16 01:41:22;;;;;;;0.50;0.50;;;;;;;7.32;100.00;100320.31;5033896;28;20444;-56
2020/12/16 01:43:49;;;;;;;0.30;0.20;;;;;;;7.39;100.00;100318.44;5022604;28;20463;-57
2020/12/16 01:46:15;;;;;;;0.30;0.20;;;;;;;7.40;100.00;100322.84;5034380;28;20535;-57
2020/12/16 01:48:41;;;;;;;0.30;0.20;;;;;;;7.44;100.00;100324.56;5033981;28;20901;-57
2020/12/16 01:51:15;;;;;;;0.30;0.20;;;;;;;7.38;100.00;100324.63;5033780;28;20472;-57
2020/12/16 01:53:44;;;;;;;0.30;0.20;;;;;;;7.38;100.00;100324.63;5034196;28;20448;-54
2020/12/16 01:56:12;;;;;;;0.30;0.20;;;;;;;7.40;100.00;100325.47;5033808;28;20486;-57
2020/12/16 01:58:42;;;;;;;0.30;0.20;;;;;;;7.41;100.00;100332.53;5033707;28;20817;-56
2020/12/16 02:01:12;;;;;;;0.30;0.20;;;;;;;7.41;100.00;100325.50;5033456;28;20474;-56
2020/12/16 02:03:40;;;;;;;0.30;0.20;;;;;;;7.43;100.00;100331.63;5033814;28;20444;-57
2020/12/16 02:06:10;;;;;;;0.30;0.20;;;;;;;7.43;100.00;100326.31;5033564;28;20797;-57
2020/12/16 02:08:38;;;;;;;0.30;0.20;;;;;;;7.50;100.00;100328.88;5027965;28;20494;-57
2020/12/16 02:11:05;;;;;;;0.30;0.20;;;;;;;7.45;100.00;100333.38;5033442;28;20474;-57
2020/12/16 02:13:31;;;;;;;2.73;2.63;;;;;;;7.50;100.00;100335.03;5033467;28;20447;-56
2020/12/16 02:15:57;;;;;;;0.30;0.20;;;;;;;7.49;100.00;100341.22;5033333;28;20451;-58
2020/12/16 02:18:24;;;;;;;0.30;0.20;;;;;;;7.47;100.00;100342.16;5033773;28;20862;-57
2020/12/16 02:20:56;;;;;;;0.30;0.20;;;;;;;7.51;100.00;100336.78;5033220;28;20977;-56
2020/12/16 02:23:26;;;;;;;0.30;0.20;;;;;;;7.58;100.00;100333.16;5033470;28;20455;-57
2020/12/16 02:25:52;;;;;;;0.30;0.20;;;;;;;7.81;100.00;100339.81;5032986;28;20452;-57
2020/12/16 02:28:19;;;;;;;0.30;0.20;;;;;;;7.99;100.00;100351.00;5033262;28;20491;-57
2020/12/16 02:30:45;;;;;;;0.30;0.20;;;;;;;7.67;100.00;100359.44;5033292;28;20467;-57
2020/12/16 02:33:11;;;;;;;0.30;0.20;;;;;;;7.58;100.00;100348.16;5033293;28;20447;-57
2020/12/16 02:35:37;;;;;;;0.30;0.20;;;;;;;7.45;100.00;100351.88;5032080;28;20439;-57
2020/12/16 02:38:03;;;;;;;0.30;0.20;;;;;;;7.50;100.00;100355.31;5024662;28;20949;-57
2020/12/16 02:40:29;;;;;;;0.30;0.20;;;;;;;7.51;100.00;100352.66;5029753;28;21004;-56
2020/12/16 02:42:55;;;;;;;0.30;0.20;;;;;;;7.46;100.00;100358.91;5025333;28;20457;-56
2020/12/16 02:45:21;;;;;;;0.30;0.20;;;;;;;7.45;100.00;100357.16;5030021;28;20474;-56
2020/12/16 02:47:48;;;;;;;0.30;0.20;;;;;;;7.47;100.00;100358.00;5033100;28;20855;-56
2020/12/16 02:50:14;;;;;;;0.30;0.20;;;;;;;7.45;100.00;100358.03;5032841;28;20468;-55
2020/12/16 02:52:40;;;;;;;1.50;1.40;;;;;;;7.50;100.00;100353.53;5033024;28;20474;-56
2020/12/16 02:55:06;;;;;;;0.30;0.20;;;;;;;7.48;100.00;100357.13;5032593;28;20455;-55
2020/12/16 02:57:32;;;;;;;0.30;0.20;;;;;;;7.50;100.00;100357.97;5033327;28;20502;-56
2020/12/16 02:59:59;;;;;;;0.30;0.20;;;;;;;7.53;100.00;100356.13;5032303;28;20475;-56
2020/12/16 03:02:25;;;;;;;0.30;0.20;;;;;;;7.49;100.00;100349.16;5032603;28;20451;-55
2020/12/16 03:04:52;;;;;;;0.43;0.40;;;;;;;7.47;100.00;100334.22;5032434;28;20481;-56
2020/12/16 03:07:18;;;;;;;1.03;1.00;;;;;;;7.49;100.00;100338.56;5030641;28;21000;-56
2020/12/16 03:09:44;;;;;;;0.30;0.20;;;;;;;7.49;100.00;100343.00;5029721;28;20471;-56
2020/12/16 03:12:10;;;;;;;0.30;0.20;;;;;;;7.50;100.00;100342.09;5032895;28;20451;-56
2020/12/16 03:14:36;;;;;;;0.30;0.20;;;;;;;7.48;100.00;100350.06;5032494;28;20938;-56
2020/12/16 03:17:02;;;;;;;0.30;0.20;;;;;;;7.41;100.00;100351.94;5032830;28;20444;-56
2020/12/16 03:19:29;;;;;;;0.80;0.80;;;;;;;7.44;100.00;100345.72;5031952;28;20472;-56
2020/12/16 03:21:55;;;;;;;0.30;0.20;;;;;;;7.42;100.00;100355.44;5032606;28;20462;-54
2020/12/16 03:24:21;;;;;;;0.30;0.20;;;;;;;7.39;100.00;100358.97;5031978;28;20456;-54
2020/12/16 03:26:47;;;;;;;0.30;0.20;;;;;;;7.39;100.00;100356.34;5032446;28;20448;-54
2020/12/16 03:29:14;;;;;;;0.30;0.20;;;;;;;7.46;100.00;100351.84;5032279;28;20471;-55
2020/12/16 03:31:40;;;;;;;0.30;0.20;;;;;;;7.38;100.00;100351.06;5032126;28;20509;-57
2020/12/16 03:34:06;;;;;;;0.30;0.20;;;;;;;7.33;100.00;100352.94;5032192;28;20456;-57
2020/12/16 03:36:34;;;;;;;0.30;0.20;;;;;;;7.37;100.00;100349.31;5032318;28;20540;-57
2020/12/16 03:39:01;;;;;;;0.30;0.20;;;;;;;7.24;100.00;100345.13;5020233;28;20443;-56
2020/12/16 03:41:27;;;;;;;0.30;0.20;;;;;;;7.26;100.00;100348.59;5032140;28;20852;-57
2020/12/16 03:43:53;;;;;;;0.30;0.30;;;;;;;7.32;100.00;100359.09;5021678;28;20513;-57
2020/12/16 03:46:20;;;;;;;0.40;0.40;;;;;;;7.37;100.00;100357.25;5032264;28;20817;-56
2020/12/16 03:48:46;;;;;;;0.67;0.20;;;;;;;7.37;100.00;100352.84;5032070;28;20545;-56
2020/12/16 03:51:14;;;;;;;0.30;0.20;;;;;;;7.40;100.00;100357.22;5032119;28;20986;-56
2020/12/16 03:53:41;;;;;;;0.30;0.20;;;;;;;7.43;100.00;100354.53;5031795;28;20459;-55
2020/12/16 03:56:09;;;;;;;0.30;0.20;;;;;;;7.40;100.00;100357.22;5032310;28;20475;-56
2020/12/16 03:58:39;;;;;;;0.30;0.20;;;;;;;7.38;100.00;100359.00;5031889;28;20450;-56
2020/12/16 04:01:05;;;;;;;0.30;0.20;;;;;;;7.42;100.00;100352.81;5031820;28;21306;-55
2020/12/16 04:03:32;;;;;;;0.30;0.13;;;;;;;7.42;100.00;100364.25;5031979;28;20452;-56
2020/12/16 04:05:59;;;;;;;0.30;0.20;;;;;;;7.50;100.00;100361.47;5031920;28;20969;-56
2020/12/16 04:08:26;;;;;;;0.30;0.20;;;;;;;7.31;100.00;100358.25;5018021;28;20884;-56
2020/12/16 04:10:52;;;;;;;0.30;0.17;;;;;;;7.33;100.00;100356.44;5026069;28;20471;-55
2020/12/16 04:13:18;;;;;;;0.30;0.20;;;;;;;7.35;100.00;100357.28;5032211;28;20500;-56
2020/12/16 04:15:45;;;;;;;0.30;0.20;;;;;;;7.45;100.00;100360.69;5031835;28;20448;-56
2020/12/16 04:18:11;;;;;;;0.30;0.20;;;;;;;7.35;100.00;100359.94;5032107;28;20447;-56
2020/12/16 04:20:37;;;;;;;0.90;0.87;;;;;;;7.38;100.00;100359.00;5031441;28;20471;-56
2020/12/16 04:23:04;;;;;;;0.30;0.20;;;;;;;7.36;100.00;100352.88;5031984;28;20448;-56
2020/12/16 04:25:32;;;;;;;0.30;0.23;;;;;;;7.35;100.00;100344.06;5031919;28;20451;-55
2020/12/16 04:27:59;;;;;;;0.30;0.20;;;;;;;7.38;100.00;100356.38;5025248;28;20499;-56
2020/12/16 04:30:26;;;;;;;0.30;0.20;;;;;;;7.38;100.00;100359.00;5026162;28;20819;-56
2020/12/16 04:32:56;;;;;;;0.30;0.20;;;;;;;7.45;100.00;100362.47;5035492;28;20448;-55
2020/12/16 04:35:24;;;;;;;0.30;0.20;;;;;;;7.51;100.00;100362.34;5035002;28;20502;-54
2020/12/16 04:37:51;;;;;;;0.30;0.20;;;;;;;7.58;100.00;100364.91;5028821;28;20448;-55
2020/12/16 04:40:22;;;;;;;0.30;0.20;;;;;;;7.55;100.00;100378.16;5015500;28;20476;-54
2020/12/16 04:43:02;;;;;;;0.30;0.20;;;;;;;7.60;100.00;100378.09;5017755;28;20460;-54
2020/12/16 04:45:29;;;;;;;0.30;0.30;;;;;;;7.61;100.00;100380.72;5019709;28;20451;-54
2020/12/16 04:47:57;;;;;;;0.30;0.20;;;;;;;7.58;100.00;100377.25;5020820;28;20543;-55
2020/12/16 04:50:24;;;;;;;0.30;0.20;;;;;;;7.62;100.00;100378.94;5026419;28;20517;-55
2020/12/16 04:52:50;;;;;;;0.30;0.20;;;;;;;7.59;100.00;100377.22;5035157;28;20447;-57
2020/12/16 04:55:18;;;;;;;0.30;0.20;;;;;;;7.67;100.00;100382.38;5034800;28;20455;-56
2020/12/16 04:57:49;;;;;;;1.23;1.23;;;;;;;7.70;100.00;100377.06;5035049;28;20447;-57
2020/12/16 05:00:16;;;;;;;0.30;0.20;;;;;;;7.84;100.00;100382.13;5034988;28;20518;-57
2020/12/16 05:03:00;;;;;;;0.30;0.20;;;;;;;7.88;100.00;100381.19;5034934;28;20452;-57
2020/12/16 05:05:27;;;;;;;0.30;0.20;;;;;;;7.98;100.00;100385.44;5034888;28;20823;-56
2020/12/16 05:07:54;;;;;;;0.30;0.20;;;;;;;7.89;100.00;100383.78;5029298;28;20499;-57
2020/12/16 05:10:37;;;;;;;0.77;0.77;;;;;;;8.07;100.00;100382.59;5034673;28;20467;-57
2020/12/16 05:13:09;;;;;;;0.30;0.20;;;;;;;7.78;100.00;100377.78;5034952;28;20483;-57
2020/12/16 05:15:41;;;;;;;0.30;0.20;;;;;;;7.68;100.00;100370.94;5034813;28;20486;-57
2020/12/16 05:18:07;;;;;;;0.30;0.20;;;;;;;7.59;100.00;100368.41;5034734;28;20844;-57
2020/12/16 05:20:34;;;;;;;0.30;0.20;;;;;;;7.58;100.00;100366.66;5034570;28;20533;-57
2020/12/16 05:23:03;;;;;;;0.30;0.20;;;;;;;7.59;100.00;100371.94;5034319;28;20459;-57
2020/12/16 05:25:34;;;;;;;0.40;0.40;;;;;;;7.66;100.00;100372.69;5021951;28;20540;-57
2020/12/16 05:28:00;;;;;;;0.30;0.20;;;;;;;7.57;100.00;100375.50;5034015;28;20498;-56
2020/12/16 05:30:27;;;;;;;0.30;0.20;;;;;;;7.62;100.00;100376.28;5034312;28;20498;-57
2020/12/16 05:32:54;;;;;;;0.30;0.20;;;;;;;7.56;100.00;100376.41;5027775;28;20831;-57
2020/12/16 05:35:35;;;;;;;0.30;0.17;;;;;;;7.52;100.00;100369.38;5027657;28;20462;-56
2020/12/16 05:38:03;;;;;;;0.30;0.20;;;;;;;7.53;100.00;100371.13;5026206;28;20930;-56
2020/12/16 05:40:31;;;;;;;0.30;0.20;;;;;;;7.57;100.00;100379.00;5030746;28;20856;-56
2020/12/16 05:42:58;;;;;;;0.30;0.10;;;;;;;7.58;100.00;100378.13;5026083;28;20471;-57
2020/12/16 05:45:27;;;;;;;0.30;0.20;;;;;;;7.60;100.00;100378.97;5031248;28;20956;-57
2020/12/16 05:48:09;;;;;;;0.30;0.20;;;;;;;7.59;100.00;100384.28;5034166;28;20850;-57
2020/12/16 05:50:37;;;;;;;0.30;0.20;;;;;;;7.64;100.00;100385.06;5034177;28;20506;-57
2020/12/16 05:53:08;;;;;;;0.30;0.27;;;;;;;7.99;100.00;100380.09;5034213;28;20513;-57
2020/12/16 05:55:54;;;;;;;0.30;0.20;;;;;;;7.75;100.00;100383.16;5011973;28;20446;-57
2020/12/16 05:58:21;;;;;;;0.30;0.20;;;;;;;7.87;100.00;100374.16;5033993;28;20444;-56
2020/12/16 06:00:58;;;;;;;0.30;0.20;;;;;;;8.02;100.00;100379.19;5033588;28;20476;-57
2020/12/16 06:03:28;;;;;;;0.30;0.20;;;;;;;7.96;100.00;100380.16;5029619;28;20957;-57
2020/12/16 06:05:58;;;;;;;0.30;0.20;;;;;;;8.05;100.00;100376.47;5025125;28;20501;-58
2020/12/16 06:08:35;;;;;;;0.30;0.20;;;;;;;7.93;100.00;100371.38;5027221;28;20862;-57
2020/12/16 06:11:03;;;;;;;0.30;0.20;;;;;;;8.05;100.00;100378.25;5033386;28;20460;-56
2020/12/16 06:13:31;;;;;;;0.30;0.20;;;;;;;8.08;100.00;100375.53;5033655;28;20451;-57
2020/12/16 06:16:07;;;;;;;0.30;0.17;;;;;;;7.87;100.00;100380.31;5033435;28;20463;-57
2020/12/16 06:18:39;;;;;;;0.30;0.20;;;;;;;7.76;100.00;100376.94;5033575;28;20446;-57
2020/12/16 06:21:07;;;;;;;0.30;0.20;;;;;;;7.71;100.00;100368.22;5033389;28;20529;-58
2020/12/16 06:23:42;;;;;;;0.30;0.20;;;;;;;7.75;100.00;100369.03;5033508;28;20488;-57
2020/12/16 06:26:16;;;;;;;0.30;0.20;;;;;;;7.69;100.00;100372.66;5033420;28;20451;-58
2020/12/16 06:28:45;;;;;;;0.30;0.20;;;;;;;7.76;100.00;100382.25;5033294;28;21024;-57
2020/12/16 06:31:16;;;;;;;0.30;0.20;;;;;;;7.67;100.00;100387.66;5032844;28;20840;-56
2020/12/16 06:34:01;;;;;;;0.30;0.20;;;;;;;7.67;100.00;100392.97;5033328;28;20452;-57
2020/12/16 06:36:38;;;;;;;0.30;0.20;;;;;;;7.66;100.00;100400.03;5033213;28;20447;-57
2020/12/16 06:39:21;;;;;;;0.30;0.20;;;;;;;7.65;100.00;100403.56;5019281;28;20493;-57
2020/12/16 06:41:59;;;;;;;0.30;0.20;;;;;;;7.69;100.00;100399.13;5032990;28;20439;-57
2020/12/16 06:44:26;;;;;;;0.70;0.70;;;;;;;7.61;100.00;100398.34;5011374;28;20446;-57
2020/12/16 06:46:54;;;;;;;0.30;0.20;;;;;;;7.65;100.00;100400.91;5032578;28;20505;-57
2020/12/16 06:49:23;;;;;;;1.40;1.40;;;;;;;7.66;100.00;100401.78;5032935;28;20915;-57
2020/12/16 06:52:10;;;;;;;0.30;0.20;;;;;;;7.79;100.00;100406.00;5033063;28;20938;-57
2020/12/16 06:54:53;;;;;;;0.30;0.20;;;;;;;7.70;100.00;100414.09;5032282;28;20447;-56
2020/12/16 06:57:25;;;;;;;0.30;0.20;;;;;;;7.92;100.00;100412.84;5032684;28;20531;-56
2020/12/16 06:59:53;;;;;;;0.30;0.20;;;;;;;7.93;100.00;100424.31;5032840;28;20471;-57
2020/12/16 07:02:29;;;;;;;0.30;0.30;;;;;;;7.81;100.00;100419.19;5032586;28;20936;-57
2020/12/16 07:04:57;;;;;;;0.30;0.20;;;;;;;7.92;100.00;100428.72;5032314;28;20447;-57
2020/12/16 07:07:43;;;;;;;0.30;0.20;;;;;;;7.81;100.00;100428.06;5029546;28;20990;-57
2020/12/16 07:10:34;;;;;;;0.30;0.20;;;;;;;7.77;100.00;100430.75;5025901;28;20468;-57
2020/12/16 07:13:15;;;;;;;0.30;0.20;;;;;;;7.75;100.00;100433.41;5029296;28;20439;-57
2020/12/16 07:15:45;;;;;;;0.30;0.20;;;;;;;7.76;100.00;100432.50;5020020;28;20475;-57
2020/12/16 07:18:27;;;;;;;0.30;0.20;;;;;;;7.82;100.00;100432.44;5032261;28;20505;-56
2020/12/16 07:21:21;;;;;;;0.30;0.20;;;;;;;7.80;100.00;100433.34;5032331;28;20542;-58
2020/12/16 07:23:51;;;;;;;0.30;0.20;;;;;;;7.78;100.00;100432.50;5030121;28;20460;-57
2020/12/16 07:26:23;;;;;;;0.30;0.20;;;;;;;7.72;100.00;100429.03;5032380;28;20455;-57
2020/12/16 07:28:49;;;;;;;0.30;0.20;;;;;;;7.74;100.00;100429.03;5032079;28;20487;-56
2020/12/16 07:31:16;;;;;;;0.30;0.20;;;;;;;7.76;100.00;100432.50;5042540;22;20550;-77
2020/12/16 07:33:43;;;;;;;0.30;0.20;;;;;;;7.75;100.00;100425.47;5021552;28;20945;-77
2020/12/16 07:36:10;;;;;;;0.30;0.20;;;;;;;7.71;100.00;100426.44;5024180;28;20440;-76
2020/12/16 07:38:37;;;;;;;0.30;0.20;;;;;;;7.71;100.00;100429.06;5044462;28;20815;-77
2020/12/16 07:41:03;;;;;;;0.30;0.20;;;;;;;7.79;100.00;100427.16;5046813;28;20514;-77
2020/12/16 07:43:30;;;;;;;0.30;0.20;;;;;;;7.76;100.00;100424.56;5034974;28;20490;-78
2020/12/16 07:46:15;;;;;;;0.30;0.20;;;;;;;7.73;100.00;100427.28;5040174;28;20467;-78
2020/12/16 07:48:45;;;;;;;0.30;0.20;;;;;;;7.72;100.00;100434.34;5039822;28;20483;-78
2020/12/16 07:51:13;;;;;;;0.30;0.20;;;;;;;7.75;100.00;100436.06;5038076;28;20883;-78
2020/12/16 07:53:50;;;;;;;0.30;0.20;;;;;;;7.72;100.00;100433.47;5039939;28;20865;-78
2020/12/16 07:56:19;;;;;;;0.30;0.20;;;;;;;7.81;100.00;100443.94;5040323;28;20452;-78
2020/12/16 07:58:46;;;;;;;0.30;0.20;;;;;;;7.76;100.00;100437.81;5033249;28;20467;-78
2020/12/16 08:01:19;;;;;;;0.30;0.20;;;;;;;7.76;100.00;100431.63;5033930;28;20471;-78
2020/12/16 08:03:46;;;;;;;0.30;0.20;;;;;;;7.78;100.00;100435.13;5039898;28;20456;-78
2020/12/16 08:06:13;;;;;;;0.30;0.20;;;;;;;7.76;100.00;100432.50;5044093;28;20451;-78
2020/12/16 08:08:43;;;;;;;0.30;0.20;;;;;;;7.72;100.00;100436.13;5042752;28;20866;-78
2020/12/16 08:11:15;;;;;;;0.40;0.20;;;;;;;7.72;100.00;100430.81;5026524;28;20468;-78
2020/12/16 08:13:41;;;;;;;0.30;0.20;;;;;;;7.71;100.00;100429.06;5021896;28;20449;-77
2020/12/16 08:16:08;;;;;;;0.33;0.27;;;;;;;7.73;100.00;100435.22;5016678;28;20444;-77
2020/12/16 08:18:38;;;;;;;0.30;0.20;;;;;;;7.74;100.00;100431.66;5017131;28;20549;-77
2020/12/16 08:21:21;;;;;;;0.43;0.40;;;;;;;7.76;100.00;100434.28;5021630;28;20463;-77
2020/12/16 08:23:52;;;;;;;0.30;0.20;;;;;;;7.83;100.00;100439.47;5049745;28;20452;-77
2020/12/16 08:26:20;;;;;;;0.30;0.20;;;;;;;7.84;100.00;100430.63;5016521;28;20821;-77
2020/12/16 08:28:46;;;;;;;0.30;0.20;;;;;;;7.84;100.00;100429.78;5031436;28;20537;-77
2020/12/16 08:31:29;;;;;;;0.30;0.20;;;;;;;7.80;100.00;100438.63;5026931;28;20475;-77
2020/12/16 08:33:57;;;;;;;0.30;0.20;;;;;;;7.77;100.00;100434.25;5021425;28;20452;-78
2020/12/16 08:36:24;;;;;;;0.30;0.20;;;;;;;7.79;100.00;100442.19;5027506;28;20458;-77
2020/12/16 08:38:53;;;;;;;0.30;0.20;;;;;;;7.79;100.00;100429.81;5033027;28;20452;-77
2020/12/16 08:41:28;;;;;;;0.30;0.20;;;;;;;7.76;100.00;100442.22;5016809;28;20476;-77
2020/12/16 08:43:56;;;;;;;0.30;0.20;;;;;;;7.73;100.00;100429.91;5029794;28;21048;-77
2020/12/16 08:46:25;;;;;;;0.30;0.20;;;;;;;7.77;100.00;100433.38;5016729;28;20506;-77
2020/12/16 08:48:51;;;;;;;0.40;0.40;;;;;;;7.80;100.00;100431.56;5016778;28;20492;-77
2020/12/16 08:51:22;;;;;;;0.30;0.20;;;;;;;7.83;100.00;100428.91;5016646;28;20483;-77
2020/12/16 08:53:57;;;;;;;0.30;0.20;;;;;;;7.84;100.00;100429.78;5017006;28;20453;-77
2020/12/16 08:56:42;;;;;;;0.30;0.20;;;;;;;7.92;100.00;100418.16;5017029;28;20957;-77
2020/12/16 08:59:28;;;;;;;0.30;0.17;;;;;;;7.96;100.00;100424.28;5017024;28;20522;-77
2020/12/16 09:02:14;;;;;;;0.30;0.20;;;;;;;8.02;100.00;100426.81;5015929;28;20535;-77
2020/12/16 09:04:43;;;;;;;0.30;0.20;;;;;;;8.08;100.00;100424.06;5015898;28;20448;-77
2020/12/16 09:07:11;;;;;;;0.30;0.20;;;;;;;8.01;100.00;100425.06;5017001;28;20479;-77
2020/12/16 09:09:40;;;;;;;0.30;0.20;;;;;;;8.00;100.00;100437.44;5031429;28;20905;-77
2020/12/16 09:12:15;;;;;;;0.70;0.70;;;;;;;8.02;100.00;100433.00;5016302;28;20469;-77
2020/12/16 09:14:52;;;;;;;0.30;0.20;;;;;;;8.12;100.00;100440.78;5016689;28;20456;-77
2020/12/16 09:17:19;;;;;;;0.30;0.20;;;;;;;8.16;100.00;100445.13;5029362;28;20471;-77
2020/12/16 09:19:45;;;;;;;0.30;0.20;;;;;;;8.16;100.00;100448.66;5023585;28;21028;-77
2020/12/16 09:22:11;;;;;;;0.30;0.20;;;;;;;8.22;100.00;100448.56;5035631;28;20472;-77
2020/12/16 09:24:37;;;;;;;0.30;0.20;;;;;;;8.51;100.00;100452.53;5016619;28;20997;-77
2020/12/16 09:27:07;;;;;;;0.30;0.20;;;;;;;8.44;100.00;100457.03;5015431;28;21012;-77
2020/12/16 09:29:34;;;;;;;0.30;0.20;;;;;;;8.36;100.00;100450.13;5016095;28;20554;-77
2020/12/16 09:32:18;;;;;;;0.30;0.20;;;;;;;8.33;100.00;100453.66;5028313;28;20471;-77
2020/12/16 09:34:53;;;;;;;0.30;0.20;;;;;;;8.29;100.00;100454.63;5025805;28;20513;-77
2020/12/16 09:37:25;;;;;;;0.50;0.50;;;;;;;8.26;100.00;100454.69;5048837;28;20449;-77
2020/12/16 09:40:04;;;;;;;5.90;5.40;;;;;;;8.23;100.00;100452.09;5035611;28;20455;-77
2020/12/16 09:42:30;;;;;;;0.30;0.20;;;;;;;8.26;100.00;100447.63;5033102;28;20851;-78
2020/12/16 09:45:11;;;;;;;0.37;0.20;;;;;;;8.24;100.00;100457.38;5035553;28;20447;-76
2020/12/16 09:47:45;;;;;;;0.30;0.20;;;;;;;8.24;100.00;100437.94;5035371;28;20824;-77
2020/12/16 09:50:11;;;;;;;0.30;0.20;;;;;;;8.32;100.00;100449.28;5034087;28;20444;-77
2020/12/16 09:52:39;;;;;;;0.30;0.20;;;;;;;8.32;100.00;100446.63;5035255;28;20598;-77
2020/12/16 09:55:39;;;;;;;0.30;0.20;;;;;;;8.29;100.00;100449.34;5034848;28;20471;-77
2020/12/16 09:58:12;;;;;;;0.30;0.20;;;;;;;8.33;100.00;100446.59;5035057;28;20440;-77
2020/12/16 10:00:40;;;;;;;0.30;0.20;;;;;;;8.33;100.00;100443.06;5034937;28;20455;-77
2020/12/16 10:03:18;;;;;;;0.30;0.20;;;;;;;8.35;100.00;100441.31;5035562;28;20863;-77
2020/12/16 10:05:44;;;;;;;0.77;0.77;;;;;;;8.43;100.00;100442.06;5033801;28;20455;-77
2020/12/16 10:08:12;;;;;;;0.80;0.80;;;;;;;8.38;100.00;100438.63;5028763;28;20491;-77
2020/12/16 10:10:39;;;;;;;0.30;0.20;;;;;;;8.37;100.00;100428.94;5031318;28;20995;-77
2020/12/16 10:13:05;;;;;;;0.30;0.20;;;;;;;8.32;100.00;100439.56;5036093;28;20455;-77
2020/12/16 10:15:31;;;;;;;0.30;0.20;;;;;;;8.38;100.00;100427.16;5033344;28;20505;-78
2020/12/16 10:17:58;;;;;;;0.30;0.20;;;;;;;8.38;100.00;100435.97;5033067;28;20422;-77
2020/12/16 10:20:25;;;;;;;0.30;0.20;;;;;;;8.41;100.00;100427.97;5034167;28;20932;-77
2020/12/16 10:22:52;;;;;;;0.30;0.20;;;;;;;8.37;100.00;100423.63;5034043;28;20447;-77
2020/12/16 10:25:18;;;;;;;0.30;0.20;;;;;;;8.39;100.00;100413.88;5033715;28;20451;-77
2020/12/16 10:27:44;;;;;;;0.30;0.20;;;;;;;8.41;100.00;100411.22;5033001;28;20518;-77
2020/12/16 10:30:10;;;;;;;0.30;0.20;;;;;;;8.41;100.00;100412.06;5033492;28;20467;-77
2020/12/16 10:32:38;;;;;;;0.30;0.20;;;;;;;8.37;100.00;100406.88;5032529;28;20478;-77
2020/12/16 10:35:04;;;;;;;0.30;0.20;;;;;;;8.44;100.00;100395.25;5032399;28;20452;-77
2020/12/16 10:37:32;;;;;;;0.50;0.50;;;;;;;8.56;100.00;100400.31;5047161;28;20455;-77
2020/12/16 10:39:59;;;;;;;0.30;0.20;;;;;;;8.66;100.00;100395.75;5033568;28;20455;-77
2020/12/16 10:42:25;;;;;;;0.30;0.20;;;;;;;8.76;100.00;100391.97;5018213;28;20483;-77
2020/12/16 10:44:51;;;;;;;3.00;2.30;;;;;;;8.79;100.00;100399.91;5034010;28;20455;-78
2020/12/16 10:47:17;;;;;;;0.30;0.20;;;;;;;8.77;100.00;100381.38;5033244;28;20463;-78
2020/12/16 10:49:43;;;;;;;0.30;0.20;;;;;;;8.82;100.00;100375.97;5032057;28;20545;-78
2020/12/16 10:52:12;;;;;;;0.30;0.20;;;;;;;8.81;100.00;100372.47;5033177;28;20475;-77
2020/12/16 10:54:38;;;;;;;0.30;0.20;;;;;;;8.94;100.00;100375.72;5033461;28;20471;-77
2020/12/16 10:57:05;;;;;;;0.30;0.20;;;;;;;8.97;100.00;100374.78;5026985;28;20460;-77
2020/12/16 10:59:32;;;;;;;0.30;0.20;;;;;;;9.09;100.00;100375.41;5022622;28;20449;-78
2020/12/16 11:02:09;;;;;;;0.30;0.20;;;;;;;9.18;100.00;100376.97;5038952;28;20474;-78
2020/12/16 11:04:35;;;;;;;0.30;0.20;;;;;;;9.26;100.00;100388.31;5030767;28;20828;-77
2020/12/16 11:07:05;;;;;;;0.30;0.20;;;;;;;9.33;100.00;100389.06;5037907;28;20448;-76
2020/12/16 11:09:31;;;;;;;0.30;0.20;;;;;;;9.42;100.00;100386.19;5036703;28;20492;-76
2020/12/16 11:11:57;;;;;;;0.30;0.20;;;;;;;9.41;100.00;100377.34;5018373;28;20825;-76
2020/12/16 11:14:25;;;;;;;0.30;0.20;;;;;;;9.45;100.00;100378.16;5021955;28;20453;-79
2020/12/16 11:16:54;;;;;;;0.30;0.20;;;;;;;9.53;100.00;100380.63;5021960;28;20892;-79
2020/12/16 11:19:21;;;;;;;0.67;0.67;;;;;;;9.57;100.00;100377.00;5021225;28;20449;-80
2020/12/16 11:21:49;;;;;;;0.30;0.20;;;;;;;9.60;100.00;100367.22;5021361;28;20491;-78
2020/12/16 11:24:17;;;;;;;0.30;0.20;;;;;;;9.68;100.00;100359.06;5021615;28;20488;-78
2020/12/16 11:26:46;;;;;;;0.30;0.20;;;;;;;9.76;100.00;100359.75;5022097;28;20457;-78
2020/12/16 11:29:14;;;;;;;0.30;0.20;;;;;;;9.85;100.00;100367.47;5037041;28;20514;-78
2020/12/16 11:31:45;;;;;;;0.30;0.20;;;;;;;9.84;100.00;100365.72;5041973;28;20468;-78
2020/12/16 11:34:18;;;;;;;0.30;0.20;;;;;;;9.84;100.00;100360.41;5040024;28;20444;-78